Time;durP1;ratioP1;P1;durP2;ratioP2;P2;SDS_P1;SDS_P2;PMS_P1;PMS_P2;Temp;Humidity;BMP_temperature;BMP_pressure;BME280_temperature;BME280_humidity;BME280_pressure;Samples;Min_cycle;Max_cycle;Signal;HPM_P1;HPM_P2
2023/03/30 00:01:16;;;;;;;6.88;1.45;;;11.70;99.90;;;;;;4965874;28;20058;-77
2023/03/30 00:03:44;;;;;;;4.38;1.48;;;11.70;99.90;;;;;;4975002;28;20489;-77
2023/03/30 00:06:13;;;;;;;4.15;1.83;;;11.70;99.90;;;;;;4981656;28;20030;-76
2023/03/30 00:08:39;;;;;;;4.70;1.95;;;11.80;99.90;;;;;;4978863;28;20065;-77
2023/03/30 00:11:09;;;;;;;3.85;1.60;;;11.90;99.90;;;;;;4981710;28;20052;-77
2023/03/30 00:13:36;;;;;;;3.83;1.30;;;11.90;99.90;;;;;;4975424;28;20892;-77
2023/03/30 00:16:05;;;;;;;4.63;1.65;;;11.90;99.90;;;;;;4989574;28;20037;-77
2023/03/30 00:18:33;;;;;;;4.18;1.45;;;12.00;99.90;;;;;;4971481;28;20046;-78
2023/03/30 00:21:01;;;;;;;3.22;1.20;;;12.00;99.90;;;;;;4965082;28;20495;-78
2023/03/30 00:23:28;;;;;;;5.55;1.70;;;12.00;99.90;;;;;;4971739;28;20038;-78
2023/03/30 00:25:55;;;;;;;3.65;1.15;;;12.10;99.90;;;;;;4974479;28;20042;-77
2023/03/30 00:28:22;;;;;;;3.65;1.35;;;12.10;99.90;;;;;;4995164;28;20484;-77
2023/03/30 00:30:48;;;;;;;3.58;1.10;;;12.20;99.90;;;;;;4989371;28;20049;-78
2023/03/30 00:33:15;;;;;;;3.35;1.50;;;12.20;99.90;;;;;;4975130;28;20485;-77
2023/03/30 00:35:41;;;;;;;5.13;2.35;;;12.20;99.90;;;;;;4974042;28;20045;-76
2023/03/30 00:38:07;;;;;;;4.28;1.45;;;12.10;99.90;;;;;;4971179;28;20698;-76
2023/03/30 00:40:37;;;;;;;3.28;1.20;;;12.00;99.90;;;;;;4969891;28;20057;-78
2023/03/30 00:43:06;;;;;;;4.32;1.30;;;12.00;99.90;;;;;;4970169;28;20053;-75
2023/03/30 00:45:35;;;;;;;4.20;1.20;;;12.00;99.90;;;;;;4974981;28;20042;-77
2023/03/30 00:48:10;;;;;;;6.10;1.40;;;12.00;99.90;;;;;;4982154;28;20061;-77
2023/03/30 00:50:53;;;;;;;5.60;1.48;;;12.00;99.90;;;;;;4973088;28;20072;-77
2023/03/30 00:53:32;;;;;;;;;;;11.90;99.90;;;;;;4973183;28;20045;-78
2023/03/30 00:55:59;;;;;;;3.58;1.17;;;12.00;99.90;;;;;;4973270;28;19917;-76
2023/03/30 00:58:28;;;;;;;3.80;0.98;;;12.00;99.90;;;;;;4970289;28;21902;-77
2023/03/30 01:00:57;;;;;;;7.30;1.33;;;12.10;99.90;;;;;;4948962;28;20606;-76
2023/03/30 01:03:26;;;;;;;5.55;1.10;;;12.10;99.90;;;;;;4955789;28;20449;-76
2023/03/30 01:05:55;;;;;;;3.67;1.10;;;12.20;99.90;;;;;;4975405;28;20053;-76
2023/03/30 01:08:26;;;;;;;2.50;0.80;;;12.20;99.90;;;;;;4995865;28;20425;-76
2023/03/30 01:10:52;;;;;;;3.92;0.93;;;12.20;99.90;;;;;;4973673;28;20614;-78
2023/03/30 01:13:19;;;;;;;2.95;0.80;;;12.20;99.90;;;;;;4955384;28;20042;-77
2023/03/30 01:16:14;;;;;;;3.28;1.00;;;12.20;99.90;;;;;;4973447;28;20425;-76
2023/03/30 01:19:18;;;;;;;2.70;0.60;;;12.20;99.90;;;;;;4987920;28;20054;-78
2023/03/30 01:22:05;;;;;;;5.90;0.98;;;12.20;99.90;;;;;;4963323;28;20034;-78
2023/03/30 01:24:33;;;;;;;2.00;0.77;;;12.30;99.90;;;;;;4954628;28;20041;-77
2023/03/30 01:27:14;;;;;;;3.40;0.70;;;12.30;99.90;;;;;;4957077;28;20517;-76
2023/03/30 01:29:57;;;;;;;3.72;0.70;;;12.30;99.90;;;;;;4977554;28;20038;-77
2023/03/30 01:32:32;;;;;;;3.63;1.15;;;12.30;99.90;;;;;;4959077;28;20041;-77
2023/03/30 01:35:37;;;;;;;3.45;0.90;;;12.30;99.90;;;;;;4989752;28;20041;-77
2023/03/30 01:38:28;;;;;;;2.08;0.90;;;12.30;99.90;;;;;;4977231;28;20049;-77
2023/03/30 01:41:22;;;;;;;1.63;0.50;;;12.20;99.90;;;;;;4980731;28;20594;-76
2023/03/30 01:43:58;;;;;;;1.73;0.65;;;12.20;99.90;;;;;;4955590;28;20038;-78
2023/03/30 01:46:32;;;;;;;4.07;1.05;;;12.20;99.90;;;;;;4987493;28;20029;-75
2023/03/30 01:49:19;;;;;;;3.13;0.85;;;12.20;99.90;;;;;;4962359;28;20394;-77
2023/03/30 01:52:15;;;;;;;4.18;0.90;;;12.30;99.90;;;;;;4970329;28;21372;-75
2023/03/30 01:54:47;;;;;;;2.75;0.80;;;12.40;99.90;;;;;;4959105;28;20061;-76
2023/03/30 01:57:36;;;;;;;2.30;0.57;;;12.30;99.90;;;;;;4953227;28;20042;-76
2023/03/30 02:00:16;;;;;;;2.70;0.60;;;12.40;99.90;;;;;;4964755;28;20045;-78
2023/03/30 02:02:53;;;;;;;3.30;0.60;;;12.40;99.90;;;;;;4982314;28;20053;-78
2023/03/30 02:05:21;;;;;;;2.45;0.60;;;12.40;99.90;;;;;;4986786;28;20053;-76
2023/03/30 02:07:55;;;;;;;3.97;1.13;;;12.30;99.90;;;;;;4989796;28;20040;-76
2023/03/30 02:10:27;;;;;;;1.52;0.60;;;12.30;99.90;;;;;;4976824;28;20037;-77
2023/03/30 02:12:57;;;;;;;1.40;0.52;;;12.30;99.90;;;;;;4990915;28;20404;-76
2023/03/30 02:15:30;;;;;;;4.80;0.70;;;12.30;99.90;;;;;;4969399;28;20037;-77
2023/03/30 02:17:56;;;;;;;3.22;0.90;;;12.30;99.90;;;;;;4968837;28;21048;-76
2023/03/30 02:20:22;;;;;;;2.15;0.63;;;12.30;99.90;;;;;;4964955;28;22241;-76
2023/03/30 02:22:49;;;;;;;4.15;0.88;;;12.30;99.90;;;;;;4964392;28;20034;-76
2023/03/30 02:25:16;;;;;;;2.95;0.73;;;12.30;99.90;;;;;;4967025;28;20499;-78
2023/03/30 02:27:46;;;;;;;2.45;0.68;;;12.20;99.90;;;;;;4955099;28;20053;-76
2023/03/30 02:30:14;;;;;;;1.67;0.57;;;12.20;99.90;;;;;;4973618;28;20045;-78
2023/03/30 02:33:07;;;;;;;3.78;0.77;;;12.10;99.90;;;;;;4956541;28;20045;-76
2023/03/30 02:35:42;;;;;;;;;;;12.10;99.90;;;;;;4969699;28;20053;-76
2023/03/30 02:38:17;;;;;;;1.33;0.57;;;12.00;99.90;;;;;;4951855;28;20327;-75
2023/03/30 02:41:04;;;;;;;5.75;1.13;;;11.90;99.90;;;;;;4964371;28;20030;-76
2023/03/30 02:43:33;;;;;;;3.42;0.82;;;11.90;99.90;;;;;;4971926;28;20452;-76
2023/03/30 02:46:16;;;;;;;4.05;0.60;;;11.80;99.90;;;;;;4971080;28;20897;-76
2023/03/30 02:49:17;;;;;;;3.40;0.88;;;11.70;99.90;;;;;;4970402;28;20038;-76
2023/03/30 02:52:25;;;;;;;3.60;0.70;;;11.70;99.90;;;;;;4946058;28;20077;-76
2023/03/30 02:54:56;;;;;;;3.90;0.85;;;11.70;99.90;;;;;;4973247;28;21109;-76
2023/03/30 02:58:06;;;;;;;2.03;0.45;;;11.80;99.90;;;;;;4962237;28;20069;-76
2023/03/30 03:01:03;;;;;;;3.22;0.68;;;11.90;99.90;;;;;;4975811;28;20072;-77
2023/03/30 03:03:46;;;;;;;4.13;0.52;;;12.00;99.90;;;;;;4970861;28;20050;-77
2023/03/30 03:06:14;;;;;;;3.53;0.70;;;12.10;99.90;;;;;;4970848;28;20045;-77
2023/03/30 03:08:49;;;;;;;2.97;0.65;;;12.10;99.90;;;;;;4990148;28;20037;-76
2023/03/30 03:11:22;;;;;;;1.45;0.40;;;12.20;99.90;;;;;;4986368;28;20459;-76
2023/03/30 03:13:49;;;;;;;2.42;0.43;;;12.20;99.90;;;;;;4979998;28;20041;-76
2023/03/30 03:16:15;;;;;;;3.28;0.50;;;12.30;99.90;;;;;;4955094;28;20486;-76
2023/03/30 03:19:02;;;;;;;2.63;0.50;;;12.30;99.90;;;;;;4984516;28;20052;-76
2023/03/30 03:21:28;;;;;;;3.33;0.50;;;12.40;99.90;;;;;;4945891;28;20519;-77
2023/03/30 03:23:55;;;;;;;2.38;0.55;;;12.50;99.90;;;;;;4986367;28;20567;-77
2023/03/30 03:26:34;;;;;;;1.92;0.40;;;12.50;99.90;;;;;;4956728;28;20053;-76
2023/03/30 03:29:00;;;;;;;2.40;0.50;;;12.50;99.90;;;;;;4956515;28;21151;-76
2023/03/30 03:31:27;;;;;;;3.92;0.47;;;12.50;99.90;;;;;;4970338;28;20037;-76
2023/03/30 03:33:53;;;;;;;2.75;0.50;;;12.60;99.90;;;;;;4979490;28;20046;-76
2023/03/30 03:36:25;;;;;;;2.47;0.55;;;12.60;99.90;;;;;;4986168;28;20054;-76
2023/03/30 03:38:53;;;;;;;1.42;0.40;;;12.60;99.90;;;;;;4972888;28;20049;-76
2023/03/30 03:41:19;;;;;;;1.52;0.30;;;12.60;99.90;;;;;;4962330;28;20042;-76
2023/03/30 03:43:46;;;;;;;1.00;0.40;;;12.50;99.90;;;;;;4968168;28;20030;-76
2023/03/30 03:46:15;;;;;;;2.90;0.38;;;12.50;99.90;;;;;;4985266;28;20580;-77
2023/03/30 03:48:42;;;;;;;1.77;0.40;;;12.40;99.90;;;;;;4957926;28;20046;-76
2023/03/30 03:51:08;;;;;;;2.58;0.35;;;12.30;99.90;;;;;;4970842;28;20054;-78
2023/03/30 03:53:36;;;;;;;1.67;0.40;;;12.20;99.90;;;;;;4992412;28;20038;-77
2023/03/30 03:56:06;;;;;;;2.13;0.80;;;12.10;99.90;;;;;;4985065;28;20046;-76
2023/03/30 03:58:33;;;;;;;2.20;0.40;;;12.00;99.90;;;;;;4971333;28;20041;-77
2023/03/30 04:01:01;;;;;;;2.25;0.32;;;11.90;99.90;;;;;;4960151;28;20042;-76
2023/03/30 04:03:28;;;;;;;3.08;0.70;;;11.90;99.90;;;;;;4954955;28;20040;-77
2023/03/30 04:05:58;;;;;;;2.88;0.50;;;11.90;99.90;;;;;;4971276;28;20038;-76
2023/03/30 04:08:25;;;;;;;3.20;1.02;;;11.90;99.90;;;;;;4988653;28;20045;-76
2023/03/30 04:10:52;;;;;;;3.10;0.65;;;11.90;99.90;;;;;;4987517;28;20493;-76
2023/03/30 04:13:35;;;;;;;2.30;0.68;;;12.00;99.90;;;;;;4979654;28;20046;-77
2023/03/30 04:16:29;;;;;;;2.63;0.60;;;12.10;99.90;;;;;;4985705;28;20389;-76
2023/03/30 04:19:17;;;;;;;2.72;0.50;;;12.20;99.90;;;;;;4983114;28;20065;-76
2023/03/30 04:21:59;;;;;;;1.27;0.40;;;12.20;99.90;;;;;;4949357;28;20047;-76
2023/03/30 04:24:54;;;;;;;3.17;0.55;;;12.30;99.90;;;;;;4954256;28;20034;-77
2023/03/30 04:27:55;;;;;;;3.65;0.50;;;12.40;99.90;;;;;;4973480;28;20045;-76
2023/03/30 04:30:35;;;;;;;2.17;0.40;;;12.40;99.90;;;;;;4976612;28;20481;-76
2023/03/30 04:33:21;;;;;;;3.33;0.40;;;12.50;99.90;;;;;;4973908;28;20053;-76
2023/03/30 04:35:58;;;;;;;3.17;0.50;;;12.50;99.90;;;;;;4945512;28;20045;-76
2023/03/30 04:39:03;;;;;;;3.33;0.38;;;12.60;99.90;;;;;;4955780;28;20274;-76
2023/03/30 04:41:53;;;;;;;1.23;0.40;;;12.60;99.90;;;;;;4963629;28;20049;-76
2023/03/30 04:44:27;;;;;;;2.35;0.40;;;12.60;99.90;;;;;;4971196;28;20042;-76
2023/03/30 04:47:17;;;;;;;3.05;0.40;;;12.70;99.90;;;;;;4978846;28;20037;-76
2023/03/30 04:50:36;;;;;;;3.67;0.82;;;12.70;99.90;;;;;;4955682;28;20050;-77
2023/03/30 04:53:35;;;;;;;3.35;0.30;;;12.70;99.90;;;;;;4970853;28;20528;-76
2023/03/30 04:56:14;;;;;;;3.25;0.50;;;12.70;99.90;;;;;;4952535;28;20049;-75
2023/03/30 04:58:59;;;;;;;2.00;0.30;;;12.70;99.90;;;;;;4965967;28;20053;-76
2023/03/30 05:01:45;;;;;;;3.28;0.30;;;12.70;99.90;;;;;;4949283;28;21338;-76
2023/03/30 05:04:38;;;;;;;1.48;0.30;;;12.70;99.90;;;;;;4965184;28;20050;-76
2023/03/30 05:07:26;;;;;;;4.07;0.70;;;12.70;99.90;;;;;;4946015;28;20034;-76
2023/03/30 05:10:15;;;;;;;3.72;0.50;;;12.70;99.90;;;;;;4957263;28;20481;-80
2023/03/30 05:13:08;;;;;;;2.17;0.52;;;12.50;99.90;;;;;;4952017;28;20054;-79
2023/03/30 05:15:54;;;;;;;4.10;0.93;;;12.30;99.90;;;;;;4952295;28;20050;-79
2023/03/30 05:18:37;;;;;;;2.85;0.65;;;12.20;99.90;;;;;;4937012;28;20042;-78
2023/03/30 05:21:20;;;;;;;4.00;0.77;;;12.00;99.90;;;;;;4943661;28;20501;-78
2023/03/30 05:24:07;;;;;;;3.75;0.90;;;11.90;99.90;;;;;;4951970;28;20042;-79
2023/03/30 05:26:57;;;;;;;5.57;1.10;;;11.90;99.90;;;;;;4943998;28;20046;-78
2023/03/30 05:29:46;;;;;;;4.38;1.05;;;11.80;99.90;;;;;;4962701;28;20049;-78
2023/03/30 05:32:24;;;;;;;3.33;0.60;;;11.70;99.90;;;;;;4935500;28;20066;-80
2023/03/30 05:35:15;;;;;;;4.97;0.80;;;11.70;99.90;;;;;;4951335;28;20030;-79
2023/03/30 05:38:03;;;;;;;4.68;1.63;;;11.70;99.90;;;;;;4952405;28;20042;-78
2023/03/30 05:40:53;;;;;;;8.40;2.20;;;11.70;99.90;;;;;;4958335;28;20050;-79
2023/03/30 05:43:30;;;;;;;6.60;1.30;;;11.60;99.90;;;;;;4936579;28;20513;-79
2023/03/30 05:46:15;;;;;;;6.25;1.70;;;11.60;99.90;;;;;;4954803;28;20859;-80
2023/03/30 05:48:47;;;;;;;4.18;1.85;;;11.60;99.90;;;;;;4976136;28;20421;-77
2023/03/30 05:51:32;;;;;;;4.32;1.25;;;11.60;99.90;;;;;;4970095;28;20101;-77
2023/03/30 05:54:18;;;;;;;10.00;2.75;;;11.60;99.90;;;;;;4980869;28;20147;-78
2023/03/30 05:57:09;;;;;;;4.65;2.22;;;11.50;99.90;;;;;;4987957;28;20414;-77
2023/03/30 05:59:57;;;;;;;5.50;2.13;;;11.50;99.90;;;;;;4981635;28;20062;-76
2023/03/30 06:02:43;;;;;;;8.65;2.15;;;11.50;99.90;;;;;;4968441;28;20034;-77
2023/03/30 06:05:15;;;;;;;5.45;2.08;;;11.50;99.90;;;;;;4988962;28;20041;-78
2023/03/30 06:07:44;;;;;;;6.30;2.60;;;11.40;99.90;;;;;;4980824;28;20029;-77
2023/03/30 06:10:11;;;;;;;5.25;2.53;;;11.40;99.90;;;;;;4959348;28;20034;-77
2023/03/30 06:12:38;;;;;;;11.15;7.53;;;11.50;99.90;;;;;;4968426;28;20037;-77
2023/03/30 06:15:10;;;;;;;9.10;4.37;;;11.50;99.90;;;;;;4985556;28;20405;-77
2023/03/30 06:17:46;;;;;;;8.15;3.03;;;11.50;99.90;;;;;;4944212;28;20295;-76
2023/03/30 06:20:13;;;;;;;11.07;4.35;;;11.60;99.90;;;;;;4951302;28;20556;-76
2023/03/30 06:22:43;;;;;;;9.32;3.50;;;11.60;99.90;;;;;;4979161;28;20034;-76
2023/03/30 06:25:22;;;;;;;10.15;4.28;;;11.70;99.90;;;;;;4987471;28;20038;-76
2023/03/30 06:27:49;;;;;;;10.27;4.35;;;11.70;99.90;;;;;;4980024;28;20030;-78
2023/03/30 06:30:15;;;;;;;10.32;3.45;;;11.70;99.90;;;;;;4991088;28;20053;-78
2023/03/30 06:32:45;;;;;;;10.82;4.70;;;11.80;99.90;;;;;;4970189;28;20034;-78
2023/03/30 06:35:15;;;;;;;12.02;3.38;;;11.80;99.90;;;;;;4972826;28;20401;-78
2023/03/30 06:37:41;;;;;;;9.43;3.10;;;11.80;99.90;;;;;;4989008;28;20049;-77
2023/03/30 06:40:14;;;;;;;10.63;3.28;;;11.90;99.90;;;;;;4968897;28;20046;-77
2023/03/30 06:42:44;;;;;;;9.80;3.35;;;11.90;99.90;;;;;;4963745;28;20033;-77
2023/03/30 06:45:26;;;;;;;11.57;2.72;;;11.80;99.90;;;;;;4959501;28;20042;-77
2023/03/30 06:47:53;;;;;;;14.70;3.17;;;11.90;99.90;;;;;;4980014;28;20883;-78
2023/03/30 06:50:22;;;;;;;14.10;3.10;;;11.90;99.90;;;;;;4975425;28;20713;-77
2023/03/30 06:53:13;;;;;;;11.75;3.50;;;11.90;99.90;;;;;;4973328;28;20129;-79
2023/03/30 06:55:42;;;;;;;11.73;3.15;;;11.90;99.90;;;;;;4954098;28;20509;-78
2023/03/30 06:58:13;;;;;;;11.20;4.10;;;11.90;99.90;;;;;;4987232;28;20067;-79
2023/03/30 07:00:40;;;;;;;12.13;3.38;;;11.90;99.90;;;;;;4966303;28;20045;-78
2023/03/30 07:03:40;;;;;;;13.95;3.30;;;11.90;99.90;;;;;;4971572;28;20048;-78
2023/03/30 07:06:29;;;;;;;10.60;3.22;;;12.00;99.90;;;;;;4978859;28;20038;-78
2023/03/30 07:08:56;;;;;;;14.75;4.20;;;12.00;99.90;;;;;;4951174;28;20038;-78
2023/03/30 07:11:25;;;;;;;15.63;2.80;;;11.90;99.90;;;;;;4941053;28;20057;-78
2023/03/30 07:13:55;;;;;;;15.77;3.47;;;11.90;99.90;;;;;;4977427;28;20045;-78
2023/03/30 07:16:21;;;;;;;14.27;2.80;;;11.90;99.90;;;;;;4977321;28;20030;-79
2023/03/30 07:18:47;;;;;;;11.52;2.10;;;11.90;99.90;;;;;;4944675;28;20046;-78
2023/03/30 07:21:14;;;;;;;12.60;2.60;;;11.90;99.90;;;;;;4954511;28;20030;-78
2023/03/30 07:23:42;;;;;;;12.95;3.15;;;12.00;99.90;;;;;;4961498;28;20037;-80
2023/03/30 07:26:12;;;;;;;9.48;2.72;;;12.00;99.90;;;;;;4949586;28;20046;-79
2023/03/30 07:28:50;;;;;;;8.90;2.72;;;12.00;99.90;;;;;;4971202;28;20061;-78
2023/03/30 07:31:18;;;;;;;11.43;2.35;;;12.00;99.90;;;;;;4978311;28;20463;-78
2023/03/30 07:33:44;;;;;;;9.13;2.20;;;12.20;99.90;;;;;;4964459;28;20041;-77
2023/03/30 07:36:19;;;;;;;9.30;3.47;;;12.40;99.90;;;;;;4975905;28;20425;-76
2023/03/30 07:38:46;;;;;;;9.55;2.90;;;12.60;99.90;;;;;;4957719;28;20057;-78
2023/03/30 07:41:15;;;;;;;13.18;4.50;;;12.80;99.90;;;;;;4940500;28;20073;-76
2023/03/30 07:43:42;;;;;;;14.98;5.07;;;12.80;99.90;;;;;;4958138;28;20042;-78
2023/03/30 07:46:10;;;;;;;9.82;3.10;;;13.00;99.90;;;;;;4937914;28;20484;-78
2023/03/30 07:48:39;;;;;;;9.68;2.63;;;13.00;99.90;;;;;;4967955;28;20050;-77
2023/03/30 07:51:09;;;;;;;10.48;2.42;;;13.10;99.90;;;;;;4960330;28;20072;-78
2023/03/30 07:53:40;;;;;;;12.52;2.92;;;13.10;99.90;;;;;;4966048;28;20378;-80
2023/03/30 07:56:16;;;;;;;15.75;3.22;;;13.10;99.90;;;;;;4961014;28;20054;-79
2023/03/30 07:58:47;;;;;;;13.25;2.92;;;13.10;99.90;;;;;;4948265;28;20049;-79
2023/03/30 08:01:14;;;;;;;13.88;2.30;;;13.10;99.90;;;;;;4952807;28;20046;-79
2023/03/30 08:04:08;;;;;;;12.85;2.15;;;13.00;99.90;;;;;;4950312;28;20521;-78
2023/03/30 08:06:36;;;;;;;18.73;2.40;;;13.10;99.90;;;;;;4953490;28;20429;-79
2023/03/30 08:09:03;;;;;;;15.15;2.70;;;13.10;99.90;;;;;;4964984;28;20042;-79
2023/03/30 08:11:30;;;;;;;12.68;2.25;;;13.00;99.90;;;;;;4987372;28;20157;-79
2023/03/30 08:13:57;;;;;;;15.70;2.20;;;13.00;99.90;;;;;;4991190;28;20953;-80
2023/03/30 08:16:23;;;;;;;14.30;2.15;;;13.10;99.90;;;;;;4989476;28;20041;-79
2023/03/30 08:18:53;;;;;;;14.98;2.13;;;13.10;99.90;;;;;;4968908;28;20049;-80
2023/03/30 08:21:20;;;;;;;13.23;2.15;;;13.10;99.90;;;;;;4956032;28;20041;-80
2023/03/30 08:23:47;;;;;;;16.70;2.53;;;13.20;99.90;;;;;;4981228;28;20056;-80
2023/03/30 08:26:13;;;;;;;15.90;2.22;;;13.30;99.90;;;;;;4967833;28;22296;-80
2023/03/30 08:28:39;;;;;;;18.33;2.78;;;13.30;99.90;;;;;;4973010;28;20042;-80
2023/03/30 08:31:09;;;;;;;16.98;2.40;;;13.40;99.90;;;;;;4970388;28;20053;-79
2023/03/30 08:33:35;;;;;;;14.95;2.05;;;13.40;99.90;;;;;;4978111;28;23299;-79
2023/03/30 08:36:03;;;;;;;17.67;2.65;;;13.60;99.90;;;;;;4967381;28;20176;-80
2023/03/30 08:38:29;;;;;;;13.13;2.58;;;13.60;99.90;;;;;;4982039;28;20038;-79
2023/03/30 08:40:55;;;;;;;15.02;2.25;;;13.80;99.90;;;;;;4964664;28;20037;-79
2023/03/30 08:43:47;;;;;;;19.95;2.20;;;13.90;99.90;;;;;;4980200;28;20505;-79
2023/03/30 08:46:16;;;;;;;11.73;1.90;;;14.20;99.90;;;;;;4990642;28;20050;-80
2023/03/30 08:48:44;;;;;;;13.27;2.08;;;14.30;99.90;;;;;;4981314;28;20042;-79
2023/03/30 08:51:18;;;;;;;17.15;1.98;;;14.30;99.90;;;;;;4975413;28;20930;-79
2023/03/30 08:53:46;;;;;;;13.73;1.95;;;14.20;99.90;;;;;;4983290;28;20041;-80
2023/03/30 08:56:20;;;;;;;19.23;2.78;;;14.10;99.90;;;;;;4958021;28;20042;-79
2023/03/30 08:59:14;;;;;;;15.80;2.70;;;14.10;99.90;;;;;;4973566;28;20507;-79
2023/03/30 09:02:01;;;;;;;18.08;3.63;;;14.10;99.90;;;;;;4966741;28;20034;-79
2023/03/30 09:04:55;;;;;;;21.38;3.70;;;14.10;99.90;;;;;;4972395;28;20165;-79
2023/03/30 09:07:26;;;;;;;15.90;2.72;;;14.00;99.90;;;;;;4978086;28;20758;-79
2023/03/30 09:09:54;;;;;;;12.27;2.13;;;13.80;99.90;;;;;;4979661;28;20037;-78
2023/03/30 09:12:51;;;;;;;15.15;2.25;;;13.70;99.90;;;;;;4975121;28;20493;-80
2023/03/30 09:15:28;;;;;;;14.00;1.92;;;13.60;99.90;;;;;;4957312;28;20046;-81
2023/03/30 09:18:02;;;;;;;15.30;2.17;;;13.60;99.90;;;;;;4987943;28;20044;-80
2023/03/30 09:20:31;;;;;;;12.95;2.20;;;13.60;99.90;;;;;;4969948;28;20713;-80
2023/03/30 09:22:59;;;;;;;17.27;2.97;;;13.60;99.90;;;;;;4967258;28;20049;-79
2023/03/30 09:25:39;;;;;;;19.20;3.15;;;13.40;99.90;;;;;;4973397;28;20508;-79
2023/03/30 09:28:15;;;;;;;20.95;2.80;;;13.20;99.90;;;;;;4974623;28;20056;-80
2023/03/30 09:30:46;;;;;;;14.98;3.80;;;13.00;99.90;;;;;;4991505;28;20045;-79
2023/03/30 09:33:33;;;;;;;15.57;2.97;;;12.90;99.90;;;;;;4976867;28;20409;-79
2023/03/30 09:36:16;;;;;;;11.63;1.90;;;12.90;99.90;;;;;;4955477;28;20061;-79
2023/03/30 09:38:44;;;;;;;21.73;3.22;;;13.00;99.90;;;;;;4988176;28;20512;-79
2023/03/30 09:41:30;;;;;;;15.48;2.80;;;13.20;99.90;;;;;;4964048;28;20044;-78
2023/03/30 09:43:58;;;;;;;16.08;3.45;;;13.50;99.90;;;;;;4987438;28;20045;-79
2023/03/30 09:46:25;;;;;;;15.38;3.13;;;13.70;99.90;;;;;;4972402;28;20120;-79
2023/03/30 09:48:51;;;;;;;18.40;3.80;;;14.00;99.90;;;;;;4963143;28;20038;-79
2023/03/30 09:51:27;;;;;;;17.58;3.47;;;14.20;99.90;;;;;;4987294;28;20050;-79
2023/03/30 09:54:03;;;;;;;18.50;3.20;;;14.30;99.90;;;;;;4978884;28;20033;-80
2023/03/30 09:56:45;;;;;;;15.45;2.67;;;14.30;99.90;;;;;;4971822;28;20045;-79
2023/03/30 09:59:38;;;;;;;19.25;2.92;;;14.10;99.90;;;;;;4970558;28;20057;-80
2023/03/30 10:02:16;;;;;;;24.25;3.92;;;14.10;99.90;;;;;;4963007;28;20046;-81
2023/03/30 10:04:52;;;;;;;21.50;3.67;;;14.30;99.90;;;;;;4959862;28;20034;-80
2023/03/30 10:07:23;;;;;;;17.48;3.25;;;14.30;99.90;;;;;;4981875;28;20065;-80
2023/03/30 10:09:49;;;;;;;19.10;2.85;;;14.40;99.90;;;;;;4982981;28;20323;-80
2023/03/30 10:12:16;;;;;;;18.33;2.95;;;14.30;99.90;;;;;;4973681;28;20044;-80
2023/03/30 10:14:43;;;;;;;20.23;3.55;;;14.40;99.90;;;;;;4974264;28;20045;-80
2023/03/30 10:17:23;;;;;;;20.23;3.45;;;14.70;99.90;;;;;;4988149;28;20037;-80
2023/03/30 10:20:12;;;;;;;19.88;2.78;;;15.00;99.90;;;;;;4971914;28;20042;-80
2023/03/30 10:22:50;;;;;;;14.45;2.25;;;15.30;99.90;;;;;;4968859;28;20898;-80
2023/03/30 10:25:27;;;;;;;13.77;2.40;;;15.50;99.90;;;;;;4971581;28;20064;-81
2023/03/30 10:27:56;;;;;;;19.30;2.95;;;15.60;99.90;;;;;;4974565;28;21149;-81
2023/03/30 10:30:26;;;;;;;17.38;3.08;;;15.40;99.90;;;;;;4973771;28;20045;-80
2023/03/30 10:32:54;;;;;;;16.45;2.58;;;15.20;99.90;;;;;;4976776;28;20034;-81
2023/03/30 10:35:24;;;;;;;16.48;2.72;;;15.10;99.90;;;;;;4977959;28;20060;-81
2023/03/30 10:37:54;;;;;;;20.83;4.43;;;15.00;99.90;;;;;;4970081;28;20037;-80
2023/03/30 10:40:31;;;;;;;25.65;4.38;;;14.90;99.90;;;;;;4983790;28;20291;-80
2023/03/30 10:42:59;;;;;;;17.02;2.65;;;14.80;99.90;;;;;;4966211;28;20054;-81
2023/03/30 10:45:36;;;;;;;16.50;2.97;;;14.80;99.90;;;;;;4970525;28;20050;-80
2023/03/30 10:48:18;;;;;;;16.77;2.28;;;14.90;99.90;;;;;;4987308;28;20042;-80
2023/03/30 10:50:53;;;;;;;12.77;1.97;;;15.00;99.90;;;;;;4970029;28;21464;-81
2023/03/30 10:53:30;;;;;;;16.50;2.78;;;15.20;99.90;;;;;;4979727;28;20293;-80
2023/03/30 10:56:05;;;;;;;16.10;2.88;;;15.40;99.90;;;;;;4977743;28;20065;-80
2023/03/30 10:58:49;;;;;;;15.05;2.85;;;15.80;99.90;;;;;;4983982;28;20512;-80
2023/03/30 11:01:19;;;;;;;19.42;3.88;;;16.00;99.90;;;;;;4945779;28;20057;-81
2023/03/30 11:03:53;;;;;;;20.15;2.72;;;16.10;99.90;;;;;;4954610;28;20042;-80
2023/03/30 11:06:30;;;;;;;15.43;2.60;;;16.10;99.90;;;;;;4972595;28;20049;-80
2023/03/30 11:09:03;;;;;;;22.23;3.88;;;15.90;99.90;;;;;;4972361;28;20390;-80
2023/03/30 11:11:39;;;;;;;19.00;2.95;;;15.70;99.90;;;;;;4973162;28;21410;-80
2023/03/30 11:14:17;;;;;;;19.85;3.40;;;15.80;99.90;;;;;;4980212;28;20386;-81
2023/03/30 11:16:51;;;;;;;21.52;3.78;;;15.90;99.90;;;;;;4974626;28;20053;-80
2023/03/30 11:19:25;;;;;;;20.83;3.45;;;16.30;99.90;;;;;;4987956;28;20038;-80
2023/03/30 11:22:16;;;;;;;19.75;3.58;;;16.60;99.90;;;;;;4977765;28;20033;-80
2023/03/30 11:24:48;;;;;;;17.25;3.13;;;16.90;99.90;;;;;;4984031;28;20034;-80
2023/03/30 11:27:37;;;;;;;18.95;2.90;;;17.10;99.90;;;;;;4986993;28;20493;-80
2023/03/30 11:30:06;;;;;;;13.80;2.65;;;17.00;99.90;;;;;;4987801;28;20034;-80
2023/03/30 11:33:03;;;;;;;17.33;3.03;;;17.00;99.90;;;;;;4989717;28;20520;-80
2023/03/30 11:36:05;;;;;;;14.98;2.47;;;17.00;99.90;;;;;;4959668;28;21266;-79
2023/03/30 11:39:02;;;;;;;21.52;3.60;;;17.30;99.90;;;;;;4970513;28;20429;-80
2023/03/30 11:41:47;;;;;;;17.63;3.83;;;17.40;99.90;;;;;;4966305;28;20065;-80
2023/03/30 11:44:13;;;;;;;16.10;3.13;;;17.50;99.90;;;;;;4975303;28;20048;-80
2023/03/30 11:46:46;;;;;;;19.35;3.10;;;17.10;99.90;;;;;;4973106;28;20037;-80
2023/03/30 11:49:35;;;;;;;19.48;3.28;;;16.90;99.90;;;;;;4977661;28;20038;-78
2023/03/30 11:52:40;;;;;;;16.25;2.88;;;16.80;99.90;;;;;;4989907;28;20071;-82
2023/03/30 11:55:43;;;;;;;18.60;3.20;;;16.60;99.90;;;;;;4982397;28;20050;-80
2023/03/30 11:58:33;;;;;;;13.65;2.53;;;16.60;99.90;;;;;;4974786;28;20068;-79
2023/03/30 12:01:09;;;;;;;18.55;2.65;;;16.50;99.90;;;;;;4964875;28;20053;-80
2023/03/30 12:03:41;;;;;;;11.68;2.17;;;16.30;99.90;;;;;;4975413;28;20501;-79
2023/03/30 12:06:25;;;;;;;13.90;2.35;;;16.30;99.90;;;;;;4974431;28;20069;-80
2023/03/30 12:09:19;;;;;;;14.65;2.25;;;16.20;99.90;;;;;;4976278;28;20042;-79
2023/03/30 12:12:10;;;;;;;16.92;2.65;;;16.20;99.90;;;;;;4976199;28;20034;-78
2023/03/30 12:15:08;;;;;;;14.63;1.95;;;16.20;99.90;;;;;;4963686;28;22058;-78
2023/03/30 12:17:54;;;;;;;15.43;3.10;;;16.30;99.90;;;;;;4976502;28;20045;-77
2023/03/30 12:20:40;;;;;;;15.45;2.70;;;16.50;99.90;;;;;;4989326;28;20053;-79
2023/03/30 12:23:44;;;;;;;10.73;1.90;;;16.80;99.90;;;;;;4972735;28;20038;-78
2023/03/30 12:26:27;;;;;;;13.00;1.52;;;17.10;99.90;;;;;;4991917;28;20044;-78
2023/03/30 12:28:58;;;;;;;14.27;2.55;;;17.10;99.90;;;;;;4975314;28;20053;-79
2023/03/30 12:31:49;;;;;;;19.73;2.35;;;17.00;99.90;;;;;;4974214;28;20036;-78
2023/03/30 12:34:16;;;;;;;16.30;2.25;;;16.90;99.90;;;;;;4982822;28;20034;-79
2023/03/30 12:36:48;;;;;;;10.57;1.88;;;17.00;99.90;;;;;;4976783;28;20034;-78
2023/03/30 12:39:24;;;;;;;15.15;2.53;;;17.10;99.90;;;;;;4974707;28;20429;-78
2023/03/30 12:42:24;;;;;;;14.50;2.78;;;17.10;99.90;;;;;;4966775;28;20911;-79
2023/03/30 12:44:57;;;;;;;12.15;2.28;;;17.10;99.90;;;;;;4958759;28;20500;-79
2023/03/30 12:47:45;;;;;;;12.75;2.13;;;17.30;99.90;;;;;;4975487;28;20038;-79
2023/03/30 12:50:24;;;;;;;18.42;2.70;;;17.40;99.90;;;;;;4976132;28;20049;-78
2023/03/30 12:53:09;;;;;;;11.85;2.15;;;17.70;99.90;;;;;;4996484;28;20056;-79
2023/03/30 12:56:06;;;;;;;11.15;1.75;;;18.10;99.90;;;;;;4982027;28;20078;-79
2023/03/30 12:58:41;;;;;;;11.13;2.25;;;18.90;99.90;;;;;;4977572;28;23166;-79
2023/03/30 13:01:15;;;;;;;19.33;2.65;;;19.40;99.90;;;;;;4982793;28;20049;-79
2023/03/30 13:04:06;;;;;;;19.88;2.97;;;19.40;99.90;;;;;;4975458;28;20061;-79
2023/03/30 13:06:32;;;;;;;18.08;2.78;;;19.60;99.90;;;;;;4992681;28;20037;-79
2023/03/30 13:09:14;;;;;;;13.25;1.80;;;20.10;99.90;;;;;;4974927;28;21125;-79
2023/03/30 13:12:04;;;;;;;13.77;2.58;;;20.50;99.90;;;;;;4985177;28;20045;-79
2023/03/30 13:14:34;;;;;;;15.18;2.20;;;20.80;99.90;;;;;;4978942;28;20053;-79
2023/03/30 13:17:00;;;;;;;12.63;1.98;;;20.40;99.90;;;;;;4972466;28;20367;-79
2023/03/30 13:19:26;;;;;;;13.75;2.50;;;19.50;99.90;;;;;;4952366;28;20045;-79
2023/03/30 13:22:16;;;;;;;13.73;2.38;;;18.80;99.90;;;;;;4962640;28;20056;-79
2023/03/30 13:24:51;;;;;;;12.52;2.30;;;18.10;99.90;;;;;;4953505;28;20038;-79
2023/03/30 13:27:17;;;;;;;16.90;2.65;;;17.80;99.90;;;;;;4969144;28;20045;-79
2023/03/30 13:29:52;;;;;;;11.10;1.88;;;18.20;99.90;;;;;;4985477;28;20416;-79
2023/03/30 13:32:24;;;;;;;14.15;1.60;;;18.40;99.90;;;;;;4972424;28;20046;-79